createdAt,value
2022-08-08T00:00:50.811Z,35.29
2022-08-08T00:02:30.954Z,35.47
2022-08-08T00:04:55.621Z,35.51
2022-08-08T00:07:22.314Z,35.62
2022-08-08T00:09:52.445Z,35.57
2022-08-08T00:12:24.762Z,35.48
2022-08-08T00:14:57.222Z,35.38
2022-08-08T00:17:26.786Z,35.21
2022-08-08T00:20:01.793Z,35.32
2022-08-08T00:22:28.840Z,35.41
2022-08-08T00:24:56.767Z,35.30
2022-08-08T00:27:25.806Z,35.37
2022-08-08T00:30:01.299Z,35.37
2022-08-08T00:32:34.237Z,35.33
2022-08-08T00:35:04.149Z,35.44
2022-08-08T00:37:47.148Z,35.61
2022-08-08T00:41:10.209Z,35.43
2022-08-08T00:43:11.735Z,35.36
2022-08-08T00:45:38.458Z,35.34
2022-08-08T00:48:29.216Z,35.22
2022-08-08T00:50:53.602Z,35.45
2022-08-08T00:53:20.010Z,35.30
2022-08-08T00:55:53.938Z,35.26
2022-08-08T00:58:21.240Z,35.24
2022-08-08T01:00:50.602Z,35.40
2022-08-08T01:04:02.424Z,35.66
2022-08-08T01:06:04.120Z,35.30
2022-08-08T01:08:30.486Z,35.18
2022-08-08T01:10:56.844Z,35.40
2022-08-08T01:13:43.257Z,35.16
2022-08-08T01:16:10.492Z,35.36
2022-08-08T01:18:53.544Z,35.13
2022-08-08T01:22:03.915Z,35.14
2022-08-08T01:24:16.390Z,35.15
2022-08-08T01:26:48.203Z,35.22
2022-08-08T01:29:15.760Z,35.33
2022-08-08T01:32:13.160Z,35.01
2022-08-08T01:34:28.995Z,35.27
2022-08-08T01:36:55.573Z,35.26
2022-08-08T01:39:24.106Z,35.30
2022-08-08T01:41:54.160Z,35.39
2022-08-08T01:44:26.417Z,35.86
2022-08-08T01:46:52.980Z,35.36
2022-08-08T01:49:22.835Z,35.59
2022-08-08T01:52:43.938Z,35.59
2022-08-08T01:55:25.508Z,35.51
2022-08-08T01:57:22.173Z,35.53
2022-08-08T02:00:01.657Z,35.37
2022-08-08T02:02:34.018Z,35.27
2022-08-08T02:05:01.520Z,35.22
2022-08-08T02:07:41.492Z,35.53
2022-08-08T02:10:11.642Z,35.79
2022-08-08T02:12:38.659Z,35.50
2022-08-08T02:15:05.318Z,35.47
2022-08-08T02:17:43.007Z,35.65
2022-08-08T02:20:16.239Z,35.81
2022-08-08T02:22:56.241Z,35.79
2022-08-08T02:25:22.878Z,35.58
2022-08-08T02:28:01.141Z,35.71
2022-08-08T02:30:28.326Z,35.39
2022-08-08T02:32:54.956Z,35.73
2022-08-08T02:35:22.367Z,35.33
2022-08-08T02:37:51.912Z,35.98
2022-08-08T02:40:22.915Z,35.90
2022-08-08T02:42:54.141Z,35.52
2022-08-08T02:45:51.145Z,35.38
2022-08-08T02:48:18.250Z,36.06
2022-08-08T02:50:55.812Z,36.15
2022-08-08T02:53:22.566Z,35.73
2022-08-08T02:55:57.803Z,35.99
2022-08-08T02:58:26.864Z,35.68
2022-08-08T03:00:53.311Z,35.42
2022-08-08T03:05:01.384Z,35.62
2022-08-08T03:06:07.273Z,35.78
2022-08-08T03:08:33.757Z,35.53
2022-08-08T03:11:00.130Z,36.02
2022-08-08T03:13:34.191Z,35.76
2022-08-08T03:16:12.813Z,35.91
2022-08-08T03:18:59.141Z,36.03
2022-08-08T03:21:40.601Z,35.76
2022-08-08T03:24:07.419Z,36.16
2022-08-08T03:26:42.178Z,35.68
2022-08-08T03:29:16.893Z,35.86
2022-08-08T03:32:05.551Z,36.16
2022-08-08T03:34:33.180Z,36.10
2022-08-08T03:36:59.534Z,35.84
2022-08-08T03:39:25.992Z,35.87
2022-08-08T03:42:26.747Z,36.17
2022-08-08T03:44:39.024Z,36.30
2022-08-08T03:47:17.606Z,35.81
2022-08-08T03:49:59.502Z,35.60
2022-08-08T03:52:28.107Z,36.26
2022-08-08T03:55:10.137Z,36.04
2022-08-08T03:58:32.414Z,35.83
2022-08-08T04:00:27.909Z,36.24
2022-08-08T04:02:57.380Z,36.01
2022-08-08T04:05:28.496Z,36.40
2022-08-08T04:07:55.422Z,36.37
2022-08-08T04:10:21.776Z,36.18
2022-08-08T04:12:48.546Z,35.99
2022-08-08T04:15:16.283Z,36.21
2022-08-08T04:17:46.119Z,36.10
2022-08-08T04:20:13.240Z,36.24
2022-08-08T04:22:40.437Z,36.16
2022-08-08T04:25:06.783Z,36.06
2022-08-08T04:28:02.935Z,36.08
2022-08-08T04:30:20.050Z,36.56
2022-08-08T04:32:48.008Z,36.39
2022-08-08T04:35:16.610Z,36.13
2022-08-08T04:37:42.961Z,36.30
2022-08-08T04:40:12.449Z,35.90
2022-08-08T04:42:46.689Z,36.15
2022-08-08T04:45:23.820Z,35.76
2022-08-08T04:47:51.988Z,36.04
2022-08-08T04:50:25.537Z,36.07
2022-08-08T04:53:01.103Z,36.41
2022-08-08T04:55:37.805Z,36.03
2022-08-08T04:58:14.426Z,36.27
2022-08-08T05:00:43.958Z,36.29
2022-08-08T05:03:12.721Z,36.02
2022-08-08T05:05:45.674Z,36.02
2022-08-08T05:08:12.787Z,36.16
2022-08-08T05:10:39.228Z,36.33
2022-08-08T05:13:06.002Z,35.92
2022-08-08T05:16:51.674Z,36.19
2022-08-08T05:18:30.352Z,36.15
2022-08-08T05:20:56.706Z,35.86
2022-08-08T05:23:24.758Z,36.04
2022-08-08T05:26:00.147Z,35.92
2022-08-08T05:28:55.715Z,35.85
2022-08-08T05:32:02.306Z,36.37
2022-08-08T05:33:59.494Z,36.08
2022-08-08T05:36:27.972Z,36.12
2022-08-08T05:38:54.684Z,36.16
2022-08-08T05:41:23.253Z,36.30
2022-08-08T05:44:03.138Z,36.32
2022-08-08T05:46:30.667Z,35.92
2022-08-08T05:48:58.394Z,36.04
2022-08-08T05:51:26.376Z,36.09
2022-08-08T05:54:24.322Z,35.73
2022-08-08T05:56:42.691Z,36.27
2022-08-08T05:59:14.219Z,36.15
2022-08-08T06:02:00.556Z,35.79
2022-08-08T06:04:27.325Z,36.03
2022-08-08T06:06:56.406Z,36.15
2022-08-08T06:09:58.123Z,36.07
2022-08-08T06:12:09.249Z,35.73
2022-08-08T06:14:40.724Z,36.20
2022-08-08T06:17:19.249Z,35.85
2022-08-08T06:19:46.031Z,36.00
2022-08-08T06:24:58.716Z,36.05
2022-08-08T06:27:26.024Z,35.90
2022-08-08T06:30:00.102Z,36.10
2022-08-08T06:32:27.598Z,36.29
2022-08-08T06:35:12.073Z,36.05
2022-08-08T06:37:40.794Z,35.64
2022-08-08T06:40:16.263Z,35.82
2022-08-08T06:42:43.094Z,35.74
2022-08-08T06:45:09.460Z,36.11
2022-08-08T06:47:52.488Z,36.05
2022-08-08T06:50:31.778Z,35.93
2022-08-08T06:52:59.603Z,35.97
2022-08-08T06:55:26.238Z,36.17
2022-08-08T06:57:56.475Z,35.74
2022-08-08T07:00:30.078Z,35.96
2022-08-08T07:02:57.079Z,36.16
2022-08-08T07:05:24.697Z,36.00
2022-08-08T07:07:51.424Z,36.04
2022-08-08T07:10:17.779Z,36.10
2022-08-08T07:12:47.931Z,36.10
2022-08-08T07:15:32.245Z,36.06
2022-08-08T07:18:34.710Z,35.97
2022-08-08T07:20:50.798Z,35.90
2022-08-08T07:23:22.521Z,35.86
2022-08-08T07:25:54.639Z,36.28
2022-08-08T07:28:21.830Z,36.03
2022-08-08T07:30:49.367Z,36.10
2022-08-08T07:33:17.650Z,36.21
2022-08-08T07:35:45.787Z,36.11
2022-08-08T07:38:21.147Z,36.11
2022-08-08T07:40:51.833Z,35.88
2022-08-08T07:43:32.332Z,35.98
2022-08-08T07:46:17.822Z,36.13
2022-08-08T07:48:50.200Z,36.26
2022-08-08T07:51:23.722Z,35.99
2022-08-08T07:54:03.987Z,36.27
2022-08-08T07:56:36.253Z,36.42
2022-08-08T07:59:03.558Z,36.12
2022-08-08T08:02:32.890Z,36.21
2022-08-08T08:04:18.687Z,36.04
2022-08-08T08:06:47.258Z,36.17
2022-08-08T08:09:13.622Z,36.22
2022-08-08T08:11:52.846Z,36.11
2022-08-08T08:14:20.190Z,35.97
2022-08-08T08:16:50.299Z,35.78
2022-08-08T08:19:17.221Z,35.81
2022-08-08T08:21:52.595Z,36.08
2022-08-08T08:24:30.349Z,36.09
2022-08-08T08:26:57.456Z,36.16
2022-08-08T08:29:23.814Z,36.16
2022-08-08T08:31:53.850Z,35.98
2022-08-08T08:34:23.878Z,36.01
2022-08-08T08:36:58.435Z,36.25
2022-08-08T08:39:25.179Z,36.33
2022-08-08T08:42:11.491Z,36.19
2022-08-08T08:44:39.694Z,36.06
2022-08-08T08:47:08.794Z,36.19
2022-08-08T08:49:36.779Z,36.12
2022-08-08T08:52:09.237Z,36.31
2022-08-08T08:54:35.590Z,36.33
2022-08-08T08:57:04.993Z,36.09
2022-08-08T09:00:01.655Z,36.34
2022-08-08T09:02:28.534Z,36.18
2022-08-08T09:04:54.911Z,36.10
2022-08-08T09:07:23.793Z,36.14
2022-08-08T09:10:06.069Z,36.18
2022-08-08T09:12:32.424Z,36.28
2022-08-08T09:14:58.775Z,36.40
2022-08-08T09:17:40.929Z,36.08
2022-08-08T09:21:56.666Z,36.22
2022-08-08T09:22:58.527Z,36.30
2022-08-08T09:25:36.013Z,36.39
2022-08-08T09:28:11.676Z,36.33
2022-08-08T09:30:58.015Z,36.26
2022-08-08T09:34:15.989Z,36.37
2022-08-08T09:36:10.740Z,36.24
2022-08-08T09:38:52.590Z,36.13
2022-08-08T09:41:20.284Z,35.92
2022-08-08T09:44:04.964Z,36.00
2022-08-08T09:46:33.300Z,36.44
2022-08-08T09:49:18.639Z,36.03
2022-08-08T09:52:01.672Z,36.36
2022-08-08T09:54:37.125Z,36.23
2022-08-08T09:57:04.365Z,35.93
2022-08-08T09:59:57.153Z,36.53
2022-08-08T10:02:17.110Z,36.35
2022-08-08T10:04:48.348Z,36.03
2022-08-08T10:07:15.845Z,36.11
2022-08-08T10:10:00.148Z,36.09
2022-08-08T10:12:38.215Z,36.36
2022-08-08T10:15:17.822Z,36.27
2022-08-08T10:18:03.983Z,36.25
2022-08-08T10:20:41.374Z,36.17
2022-08-08T10:23:20.812Z,36.02
2022-08-08T10:26:04.027Z,36.08
2022-08-08T10:28:30.386Z,36.15
2022-08-08T10:30:57.465Z,36.35
2022-08-08T10:33:38.541Z,36.13
2022-08-08T10:36:22.577Z,36.25
2022-08-08T10:38:49.276Z,36.59
2022-08-08T10:41:15.634Z,36.38
2022-08-08T10:43:43.312Z,36.26
2022-08-08T10:46:27.635Z,36.31
2022-08-08T10:48:59.153Z,36.13
2022-08-08T10:51:26.190Z,35.91
2022-08-08T10:53:57.160Z,36.18
2022-08-08T10:56:27.827Z,36.34
2022-08-08T10:58:59.028Z,36.22
2022-08-08T11:01:25.449Z,36.38
2022-08-08T11:04:02.366Z,36.26
2022-08-08T11:06:29.227Z,36.42
2022-08-08T11:08:56.332Z,36.56
2022-08-08T11:11:32.045Z,36.23
2022-08-08T11:14:15.665Z,36.03
2022-08-08T11:16:42.523Z,36.17
2022-08-08T11:19:15.655Z,36.52
2022-08-08T11:21:43.536Z,36.27
2022-08-08T11:24:20.683Z,36.33
2022-08-08T11:26:53.896Z,36.31
2022-08-08T11:29:23.649Z,35.83
2022-08-08T11:32:08.069Z,36.27
2022-08-08T11:34:52.654Z,36.12
2022-08-08T11:38:35.471Z,36.08
2022-08-08T11:40:07.845Z,36.11
2022-08-08T11:42:35.603Z,36.09
2022-08-08T11:45:02.150Z,36.07
2022-08-08T11:47:40.001Z,36.16
2022-08-08T11:50:14.832Z,36.15
2022-08-08T11:52:49.709Z,36.27
2022-08-08T11:55:16.074Z,36.10
2022-08-08T11:57:42.423Z,36.22
2022-08-08T12:00:09.841Z,36.37
2022-08-08T12:02:37.024Z,36.14
2022-08-08T12:05:06.773Z,36.33
2022-08-08T12:07:35.567Z,36.28
2022-08-08T12:10:06.075Z,36.27
2022-08-08T12:12:35.263Z,35.91
2022-08-08T12:15:01.618Z,36.07
2022-08-08T12:17:28.009Z,36.04
2022-08-08T12:19:54.378Z,36.14
2022-08-08T12:22:21.351Z,35.95
2022-08-08T12:24:53.805Z,35.93
2022-08-08T12:27:22.536Z,36.40
2022-08-08T12:29:53.452Z,36.23
2022-08-08T12:32:22.295Z,36.28
2022-08-08T12:34:48.963Z,36.09
2022-08-08T12:37:15.329Z,35.93
2022-08-08T12:40:00.675Z,36.10
2022-08-08T12:42:28.042Z,36.06
2022-08-08T12:44:59.724Z,36.03
2022-08-08T12:47:57.855Z,35.80
2022-08-08T12:50:12.565Z,35.90
2022-08-08T12:52:41.517Z,35.77
2022-08-08T12:55:09.400Z,35.75
2022-08-08T12:57:56.208Z,35.96
2022-08-08T13:00:23.051Z,35.83
2022-08-08T13:03:00.961Z,36.05
2022-08-08T13:06:04.186Z,35.84
2022-08-08T13:08:15.839Z,35.60
2022-08-08T13:10:45.989Z,36.12
2022-08-08T13:13:22.140Z,35.86
2022-08-08T13:15:54.429Z,35.66
2022-08-08T13:18:27.468Z,35.97
2022-08-08T13:20:54.163Z,35.72
2022-08-08T13:23:31.165Z,35.86
2022-08-08T13:26:04.276Z,36.01
2022-08-08T13:28:42.122Z,36.09
2022-08-08T13:31:08.966Z,35.95
2022-08-08T13:33:42.502Z,35.75
2022-08-08T13:36:09.669Z,35.45
2022-08-08T13:38:36.019Z,35.52
2022-08-08T13:41:03.386Z,35.67
2022-08-08T13:43:29.726Z,35.73
2022-08-08T13:45:56.707Z,35.77
2022-08-08T13:48:26.559Z,35.67
2022-08-08T13:50:57.843Z,35.54
2022-08-08T13:53:39.261Z,35.50
2022-08-08T13:56:06.131Z,35.28
2022-08-08T13:58:33.209Z,35.43
2022-08-08T14:00:59.744Z,35.43
2022-08-08T14:03:47.247Z,35.68
2022-08-08T14:06:32.307Z,35.52
2022-08-08T14:08:58.811Z,35.52
2022-08-08T14:11:25.171Z,35.53
2022-08-08T14:13:59.502Z,35.56
2022-08-08T14:16:26.831Z,35.69
2022-08-08T14:18:54.678Z,35.29
2022-08-08T14:21:22.297Z,35.78
2022-08-08T14:24:07.452Z,35.56
2022-08-08T14:26:35.128Z,35.40
2022-08-08T14:29:11.633Z,35.53
2022-08-08T14:32:08.883Z,35.63
2022-08-08T14:34:37.192Z,35.62
2022-08-08T14:37:03.638Z,35.27
2022-08-08T14:39:48.156Z,35.16
2022-08-08T14:42:16.886Z,35.27
2022-08-08T14:44:43.491Z,35.23
2022-08-08T14:47:16.649Z,34.92
2022-08-08T14:50:02.523Z,35.09
2022-08-08T14:52:30.363Z,35.50
2022-08-08T14:54:56.803Z,35.29
2022-08-08T14:58:00.705Z,35.04
2022-08-08T15:00:09.815Z,35.10
2022-08-08T15:02:58.336Z,35.13
2022-08-08T15:05:42.770Z,34.88
2022-08-08T15:08:22.402Z,35.08
2022-08-08T15:10:56.850Z,35.08
2022-08-08T15:13:23.250Z,35.16
2022-08-08T15:16:02.521Z,35.08
2022-08-08T15:18:30.019Z,35.12
2022-08-08T15:20:56.439Z,35.00
2022-08-08T15:23:22.838Z,35.10
2022-08-08T15:25:59.552Z,34.64
2022-08-08T15:28:33.463Z,34.82
2022-08-08T15:31:01.082Z,34.70
2022-08-08T15:33:38.457Z,34.97
2022-08-08T15:36:18.686Z,34.81
2022-08-08T15:38:49.777Z,34.97
2022-08-08T15:41:17.299Z,35.04
2022-08-08T15:44:02.610Z,35.27
2022-08-08T15:46:31.713Z,34.53
2022-08-08T15:49:01.658Z,35.09
2022-08-08T15:51:33.670Z,35.12
2022-08-08T15:54:00.801Z,34.85
2022-08-08T15:56:27.175Z,34.80
2022-08-08T15:58:53.535Z,34.65
2022-08-08T16:01:20.998Z,34.71
2022-08-08T16:03:51.996Z,34.24
2022-08-08T16:06:28.603Z,34.77
2022-08-08T16:09:02.290Z,34.55
2022-08-08T16:13:20.914Z,34.74
2022-08-08T16:14:32.566Z,34.57
2022-08-08T16:16:59.763Z,34.65
2022-08-08T16:19:26.899Z,34.70
2022-08-08T16:21:54.106Z,34.91
2022-08-08T16:24:21.571Z,34.68
2022-08-08T16:26:49.163Z,34.34
2022-08-08T16:29:17.232Z,34.41
2022-08-08T16:31:48.413Z,34.46
2022-08-08T16:34:15.688Z,34.60
2022-08-08T16:36:44.555Z,34.27
2022-08-08T16:39:27.915Z,34.19
2022-08-08T16:42:02.114Z,34.28
2022-08-08T16:44:33.750Z,34.58
2022-08-08T16:47:00.771Z,34.07
2022-08-08T16:49:36.194Z,34.07
2022-08-08T16:55:05.137Z,34.16
2022-08-08T16:55:23.789Z,34.38
2022-08-08T16:58:13.906Z,34.36
2022-08-08T17:00:26.904Z,34.02
2022-08-08T17:02:53.835Z,34.17
2022-08-08T17:05:20.194Z,34.47
2022-08-08T17:07:51.067Z,34.36
2022-08-08T17:10:19.459Z,34.04
2022-08-08T17:12:52.651Z,34.30
2022-08-08T17:15:20.752Z,34.47
2022-08-08T17:18:03.164Z,34.52
2022-08-08T17:20:30.667Z,34.21
2022-08-08T17:23:16.642Z,34.12
2022-08-08T17:25:52.085Z,34.07
2022-08-08T17:28:19.254Z,34.05
2022-08-08T17:31:01.190Z,34.14
2022-08-08T17:34:35.899Z,34.28
2022-08-08T17:36:29.285Z,34.46
2022-08-08T17:38:57.843Z,34.04
2022-08-08T17:41:38.935Z,34.13
2022-08-08T17:44:09.523Z,34.05
2022-08-08T17:46:36.614Z,34.03
2022-08-08T17:49:02.998Z,33.86
2022-08-08T17:51:29.376Z,34.11
2022-08-08T17:53:57.724Z,34.31
2022-08-08T17:56:26.147Z,34.13
2022-08-08T17:58:52.711Z,33.78
2022-08-08T18:01:32.123Z,34.05
2022-08-08T18:04:09.080Z,33.91
2022-08-08T18:06:43.096Z,34.00
2022-08-08T18:09:10.812Z,33.85
2022-08-08T18:11:38.267Z,34.22
2022-08-08T18:14:21.951Z,33.89
2022-08-08T18:16:52.595Z,33.58
2022-08-08T18:19:20.617Z,33.97
2022-08-08T18:22:01.782Z,33.98
2022-08-08T18:24:28.662Z,34.01
2022-08-08T18:26:57.008Z,34.09
2022-08-08T18:29:27.314Z,33.82
2022-08-08T18:31:56.684Z,33.80
2022-08-08T18:34:26.986Z,34.14
2022-08-08T18:36:54.290Z,33.93
2022-08-08T18:39:28.157Z,33.87
2022-08-08T18:41:58.283Z,33.66
2022-08-08T18:44:30.329Z,33.71
2022-08-08T18:47:00.914Z,33.80
2022-08-08T18:49:32.548Z,33.71
2022-08-08T18:52:07.616Z,33.82
2022-08-08T18:54:34.007Z,33.74
2022-08-08T18:57:00.379Z,33.80
2022-08-08T18:59:34.545Z,33.89
2022-08-08T19:02:27.206Z,34.05
2022-08-08T19:04:51.309Z,33.74
2022-08-08T19:07:17.706Z,33.84
2022-08-08T19:09:48.806Z,33.86
2022-08-08T19:12:30.780Z,33.86
2022-08-08T19:14:57.148Z,33.66
2022-08-08T19:17:29.486Z,33.55
2022-08-08T19:20:11.157Z,33.61
2022-08-08T19:22:37.695Z,33.67
2022-08-08T19:26:02.516Z,33.90
2022-08-08T19:27:56.456Z,33.63
2022-08-08T19:30:26.465Z,33.67
2022-08-08T19:32:52.969Z,33.74
2022-08-08T19:35:19.967Z,33.67
2022-08-08T19:37:55.362Z,33.66
2022-08-08T19:40:31.045Z,33.73
2022-08-08T19:42:59.176Z,33.75
2022-08-08T19:45:57.360Z,33.83
2022-08-08T19:48:28.639Z,33.94
2022-08-08T19:50:57.171Z,33.77
2022-08-08T19:53:51.421Z,33.48
2022-08-08T19:56:12.141Z,33.79
2022-08-08T19:58:39.316Z,33.74
2022-08-08T20:01:05.819Z,33.65
2022-08-08T20:04:01.909Z,33.63
2022-08-08T20:06:21.275Z,33.77
2022-08-08T20:08:48.927Z,33.87
2022-08-08T20:11:15.386Z,33.70
2022-08-08T20:14:32.348Z,34.11
2022-08-08T20:16:29.349Z,33.92
2022-08-08T20:18:56.083Z,34.12
2022-08-08T20:21:23.164Z,34.00
2022-08-08T20:23:52.320Z,34.02
2022-08-08T20:26:18.968Z,33.69
2022-08-08T20:28:53.799Z,33.84
2022-08-08T20:31:20.147Z,33.75
2022-08-08T20:34:03.923Z,33.92
2022-08-08T20:36:34.035Z,33.90
2022-08-08T20:39:05.074Z,34.02
2022-08-08T20:41:31.455Z,34.09
2022-08-08T20:44:00.261Z,33.72
2022-08-08T20:46:26.616Z,33.51
2022-08-08T20:48:58.211Z,33.97
2022-08-08T20:51:25.100Z,33.75
2022-08-08T20:53:58.027Z,33.82
2022-08-08T20:56:34.710Z,33.67
2022-08-08T20:59:03.262Z,33.95
2022-08-08T21:01:32.490Z,34.12
2022-08-08T21:04:10.910Z,33.88
2022-08-08T21:06:53.065Z,33.86
2022-08-08T21:09:20.185Z,33.72
2022-08-08T21:11:50.711Z,33.38
2022-08-08T21:14:18.668Z,33.69
2022-08-08T21:16:56.925Z,33.70
2022-08-08T21:19:23.295Z,33.63
2022-08-08T21:21:49.661Z,33.85
2022-08-08T21:24:30.102Z,33.78
2022-08-08T21:26:56.882Z,34.11
2022-08-08T21:30:05.280Z,34.12
2022-08-08T21:32:19.031Z,33.97
2022-08-08T21:34:51.596Z,33.85
2022-08-08T21:37:23.350Z,33.81
2022-08-08T21:40:09.704Z,33.69
2022-08-08T21:42:37.849Z,33.84
2022-08-08T21:45:44.502Z,33.78
2022-08-08T21:48:06.368Z,33.73
2022-08-08T21:50:36.871Z,33.96
2022-08-08T21:54:22.663Z,33.84
2022-08-08T21:56:26.485Z,33.69
2022-08-08T21:58:37.714Z,33.45
2022-08-08T22:01:04.571Z,33.95
2022-08-08T22:03:31.243Z,34.08
2022-08-08T22:06:00.527Z,34.22
2022-08-08T22:08:28.217Z,34.35
2022-08-08T22:11:03.790Z,34.24
2022-08-08T22:13:51.571Z,34.29
2022-08-08T22:16:18.180Z,34.24
2022-08-08T22:18:52.430Z,34.04
2022-08-08T22:21:19.357Z,34.01
2022-08-08T22:23:50.428Z,34.04
2022-08-08T22:26:28.319Z,33.89
2022-08-08T22:29:14.317Z,34.03
2022-08-08T22:31:43.340Z,34.09
2022-08-08T22:34:25.179Z,34.09
2022-08-08T22:36:53.448Z,34.23
2022-08-08T22:39:19.930Z,34.27
2022-08-08T22:41:46.318Z,34.50
2022-08-08T22:44:15.890Z,34.10
2022-08-08T22:46:42.543Z,34.27
2022-08-08T22:49:12.179Z,34.17
2022-08-08T22:51:46.426Z,34.23
2022-08-08T22:54:33.849Z,34.22
2022-08-08T22:56:59.390Z,34.21
2022-08-08T22:59:25.742Z,34.33
2022-08-08T23:02:02.646Z,34.36
2022-08-08T23:04:32.362Z,33.91
2022-08-08T23:07:03.137Z,34.02
2022-08-08T23:09:30.586Z,34.31
2022-08-08T23:12:28.898Z,34.37
2022-08-08T23:14:56.048Z,34.09
2022-08-08T23:17:29.913Z,34.26
2022-08-08T23:19:56.585Z,34.49
2022-08-08T23:22:22.976Z,34.25
2022-08-08T23:24:50.474Z,34.23
2022-08-08T23:27:17.160Z,34.28
2022-08-08T23:30:03.272Z,33.94
2022-08-08T23:32:30.748Z,34.25
2022-08-08T23:34:59.679Z,34.14
2022-08-08T23:37:26.050Z,34.31
2022-08-08T23:40:12.446Z,33.91
2022-08-08T23:42:38.882Z,34.42
2022-08-08T23:45:05.236Z,34.52
2022-08-08T23:49:05.068Z,34.27
2022-08-08T23:50:31.100Z,34.29
2022-08-08T23:52:57.714Z,34.47
2022-08-08T23:55:24.078Z,34.28
2022-08-08T23:57:52.730Z,34.35
